Infinity Of Yar — 2JLA9 — position and weather

sailwx.info

Track history (hours):
 
Tides and Currents Weather Stations Pressure Air Temp Water Temp Dewpoint Dewpoint Depression Visibility Wind Speed Wind Dir Waves Ship Positions

Infinity Of Yar

Last reported at 2017-Nov-19 16:24 UTC. Time now 2017-Dec-15 04:16 UTC.
Position N 27°51' W 015°19'.
Warning: this ship's position is 25 days out of date.

Length 14 m.

Type: Sailing vessel. MMSI: 235116821.

Date/timePositionNaut miles runAvg speedWind from/ knotsBaromVisibWave heightAir tempDewpointWater temp
2017-Nov-19 16:24N 27°51' W 015°19'3 7.1
2017-Nov-19 15:56N 27°55' W 015°19'3 5.5
2017-Nov-19 15:26N 27°57' W 015°20'2 4.8
2017-Nov-19 14:56N 27°60' W 015°20'2 4.4
2017-Nov-19 14:26N 28°02' W 015°22'2 3.6
2017-Nov-19 13:55N 28°03' W 015°22'1 3.3
2017-Nov-19 13:30N 28°05' W 015°23'2 4.5
2017-Nov-19 13:00N 28°07' W 015°24'0 0.8
2017-Nov-19 12:30N 28°07' W 015°24'0 0.6
2017-Nov-19 12:00N 28°07' W 015°24'2 3.4
2017-Nov-19 11:30N 28°08' W 015°26'0 0.0
2017-Nov-19 11:00N 28°08' W 015°26'0 0.0
2017-Nov-19 10:30N 28°08' W 015°26'0 0.0
2017-Nov-19 10:00N 28°08' W 015°26'0 0.0
2017-Nov-19 09:30N 28°08' W 015°26'0 0.0
2017-Nov-19 09:00N 28°08' W 015°26'0 0.0
2017-Nov-19 08:30N 28°08' W 015°26'0 0.0
2017-Nov-18 17:30N 28°08' W 015°26'0 0.0
2017-Nov-17 13:25N 28°08' W 015°26'0 0.0
2017-Nov-17 12:55N 28°08' W 015°26'0 0.0
2017-Nov-17 12:22N 28°08' W 015°26'0 0.0
2017-Nov-17 11:55N 28°08' W 015°26'0 0.0
2017-Nov-17 11:25N 28°08' W 015°26'0 0.0
2017-Nov-17 10:54N 28°08' W 015°26'0 0.0
2017-Nov-17 10:27N 28°08' W 015°26'0 0.0
2017-Nov-17 09:57N 28°08' W 015°26'0 0.0
2017-Nov-17 09:27N 28°08' W 015°26'0 0.0
2017-Nov-17 08:51N 28°08' W 015°26'0 0.0
2017-Nov-17 08:24N 28°08' W 015°26'0 0.0
2017-Nov-17 07:57N 28°08' W 015°26'0 0.0
2017-Nov-17 07:30N 28°08' W 015°26'0 0.0
2017-Nov-17 07:00N 28°08' W 015°26'0 0.0
2017-Nov-17 06:30N 28°08' W 015°26'0 0.0
2017-Nov-17 06:00N 28°08' W 015°26'0 0.0
2017-Nov-17 05:30N 28°08' W 015°26'0 0.0
2017-Nov-17 05:00N 28°08' W 015°26'0 0.0
2017-Nov-17 04:30N 28°08' W 015°26'0 0.0
2017-Nov-17 04:00N 28°08' W 015°26'0 0.0
2017-Nov-17 03:30N 28°08' W 015°26'0 0.0
2017-Nov-17 03:00N 28°08' W 015°26'0 0.0
2017-Nov-17 02:30N 28°08' W 015°26'0 0.0
2017-Nov-17 02:00N 28°08' W 015°26'0 0.0
2017-Nov-17 01:30N 28°08' W 015°26'0 0.0
2017-Nov-17 01:00N 28°08' W 015°26'0 0.0
2017-Nov-17 00:30N 28°08' W 015°26'0 0.0
2017-Nov-16 23:51N 28°08' W 015°26'0 0.0
2017-Nov-16 23:21N 28°08' W 015°26'0 0.0
2017-Nov-16 22:51N 28°08' W 015°26'0 0.0
2017-Nov-16 22:24N 28°08' W 015°26'0 0.0
2017-Nov-16 21:54N 28°08' W 015°26'0 0.0
2017-Nov-16 21:24N 28°08' W 015°26'0 0.0
2017-Nov-16 20:54N 28°08' W 015°26'0 0.0
2017-Nov-16 20:24N 28°08' W 015°26'0 0.0
2017-Nov-16 19:57N 28°08' W 015°26'0 0.0
2017-Nov-16 19:27N 28°08' W 015°26'0 0.0
2017-Nov-16 18:57N 28°08' W 015°26'  
Track history (hours):
 
Tides and Currents Weather Stations Pressure Air Temp Water Temp Dewpoint Dewpoint Depression Visibility Wind Speed Wind Dir Waves Ship Positions

Infinity Of Yar

Last reported at 2017-Nov-19 16:24 UTC. Time now 2017-Dec-15 04:16 UTC.
Position N 27°51' W 015°19'.
Warning: this ship's position is 25 days out of date.

Length 14 m.

Type: Sailing vessel. MMSI: 235116821.

Date/timePositionNaut miles runAvg speedWind from/ knotsBaromVisibWave heightAir tempDewpointWater temp
2017-Nov-19 16:24N 27°51' W 015°19'3 7.1
2017-Nov-19 15:56N 27°55' W 015°19'3 5.5
2017-Nov-19 15:26N 27°57' W 015°20'2 4.8
2017-Nov-19 14:56N 27°60' W 015°20'2 4.4
2017-Nov-19 14:26N 28°02' W 015°22'2 3.6
2017-Nov-19 13:55N 28°03' W 015°22'1 3.3
2017-Nov-19 13:30N 28°05' W 015°23'2 4.5
2017-Nov-19 13:00N 28°07' W 015°24'0 0.8
2017-Nov-19 12:30N 28°07' W 015°24'0 0.6
2017-Nov-19 12:00N 28°07' W 015°24'2 3.4
2017-Nov-19 11:30N 28°08' W 015°26'0 0.0
2017-Nov-19 11:00N 28°08' W 015°26'0 0.0
2017-Nov-19 10:30N 28°08' W 015°26'0 0.0
2017-Nov-19 10:00N 28°08' W 015°26'0 0.0
2017-Nov-19 09:30N 28°08' W 015°26'0 0.0
2017-Nov-19 09:00N 28°08' W 015°26'0 0.0
2017-Nov-19 08:30N 28°08' W 015°26'0 0.0
2017-Nov-18 17:30N 28°08' W 015°26'0 0.0
2017-Nov-17 13:25N 28°08' W 015°26'0 0.0
2017-Nov-17 12:55N 28°08' W 015°26'0 0.0
2017-Nov-17 12:22N 28°08' W 015°26'0 0.0
2017-Nov-17 11:55N 28°08' W 015°26'0 0.0
2017-Nov-17 11:25N 28°08' W 015°26'0 0.0
2017-Nov-17 10:54N 28°08' W 015°26'0 0.0
2017-Nov-17 10:27N 28°08' W 015°26'0 0.0
2017-Nov-17 09:57N 28°08' W 015°26'0 0.0
2017-Nov-17 09:27N 28°08' W 015°26'0 0.0
2017-Nov-17 08:51N 28°08' W 015°26'0 0.0
2017-Nov-17 08:24N 28°08' W 015°26'0 0.0
2017-Nov-17 07:57N 28°08' W 015°26'0 0.0
2017-Nov-17 07:30N 28°08' W 015°26'0 0.0
2017-Nov-17 07:00N 28°08' W 015°26'0 0.0
2017-Nov-17 06:30N 28°08' W 015°26'0 0.0
2017-Nov-17 06:00N 28°08' W 015°26'0 0.0
2017-Nov-17 05:30N 28°08' W 015°26'0 0.0
2017-Nov-17 05:00N 28°08' W 015°26'0 0.0
2017-Nov-17 04:30N 28°08' W 015°26'0 0.0
2017-Nov-17 04:00N 28°08' W 015°26'0 0.0
2017-Nov-17 03:30N 28°08' W 015°26'0 0.0
2017-Nov-17 03:00N 28°08' W 015°26'0 0.0
2017-Nov-17 02:30N 28°08' W 015°26'0 0.0
2017-Nov-17 02:00N 28°08' W 015°26'0 0.0
2017-Nov-17 01:30N 28°08' W 015°26'0 0.0
2017-Nov-17 01:00N 28°08' W 015°26'0 0.0
2017-Nov-17 00:30N 28°08' W 015°26'0 0.0
2017-Nov-16 23:51N 28°08' W 015°26'0 0.0
2017-Nov-16 23:21N 28°08' W 015°26'0 0.0
2017-Nov-16 22:51N 28°08' W 015°26'0 0.0
2017-Nov-16 22:24N 28°08' W 015°26'0 0.0
2017-Nov-16 21:54N 28°08' W 015°26'0 0.0
2017-Nov-16 21:24N 28°08' W 015°26'0 0.0
2017-Nov-16 20:54N 28°08' W 015°26'0 0.0
2017-Nov-16 20:24N 28°08' W 015°26'0 0.0
2017-Nov-16 19:57N 28°08' W 015°26'0 0.0
2017-Nov-16 19:27N 28°08' W 015°26'0 0.0
2017-Nov-16 18:57N 28°08' W 015°26'  

Dump ship's entire track history